sensor_id;sensor_type;location;lat;lon;timestamp;P1;durP1;ratioP1;P2;durP2;ratioP2
20695;SDS011;10507;52.754;13.040;2023-06-10T00:01:52;10.57;;;5.25;;
20695;SDS011;10507;52.754;13.040;2023-06-10T00:04:21;11.13;;;5.03;;
20695;SDS011;10507;52.754;13.040;2023-06-10T00:06:49;8.85;;;4.47;;
20695;SDS011;10507;52.754;13.040;2023-06-10T00:09:17;9.07;;;4.85;;
20695;SDS011;10507;52.754;13.040;2023-06-10T00:11:45;16.00;;;4.78;;
20695;SDS011;10507;52.754;13.040;2023-06-10T00:14:14;8.98;;;4.30;;
20695;SDS011;10507;52.754;13.040;2023-06-10T00:16:42;11.65;;;5.07;;
20695;SDS011;10507;52.754;13.040;2023-06-10T00:19:11;11.18;;;5.03;;
20695;SDS011;10507;52.754;13.040;2023-06-10T00:21:42;10.88;;;5.20;;
20695;SDS011;10507;52.754;13.040;2023-06-10T00:24:10;10.05;;;4.57;;
20695;SDS011;10507;52.754;13.040;2023-06-10T00:26:39;12.02;;;4.22;;
20695;SDS011;10507;52.754;13.040;2023-06-10T00:29:07;8.27;;;4.07;;
20695;SDS011;10507;52.754;13.040;2023-06-10T00:31:36;9.77;;;4.45;;
20695;SDS011;10507;52.754;13.040;2023-06-10T00:34:05;9.70;;;4.03;;
20695;SDS011;10507;52.754;13.040;2023-06-10T00:36:34;15.65;;;4.63;;
20695;SDS011;10507;52.754;13.040;2023-06-10T00:39:02;10.13;;;4.43;;
20695;SDS011;10507;52.754;13.040;2023-06-10T00:41:31;10.10;;;4.60;;
20695;SDS011;10507;52.754;13.040;2023-06-10T00:44:00;11.32;;;4.38;;
20695;SDS011;10507;52.754;13.040;2023-06-10T00:46:28;10.55;;;5.07;;
20695;SDS011;10507;52.754;13.040;2023-06-10T00:48:59;14.45;;;4.50;;
20695;SDS011;10507;52.754;13.040;2023-06-10T00:51:27;9.85;;;4.25;;
20695;SDS011;10507;52.754;13.040;2023-06-10T00:53:55;8.95;;;4.28;;
20695;SDS011;10507;52.754;13.040;2023-06-10T00:56:24;9.57;;;4.60;;
20695;SDS011;10507;52.754;13.040;2023-06-10T00:58:52;12.80;;;4.80;;
20695;SDS011;10507;52.754;13.040;2023-06-10T01:01:20;10.20;;;4.18;;
20695;SDS011;10507;52.754;13.040;2023-06-10T01:03:48;12.50;;;4.15;;
20695;SDS011;10507;52.754;13.040;2023-06-10T01:06:20;10.00;;;3.95;;
20695;SDS011;10507;52.754;13.040;2023-06-10T01:09:00;11.82;;;4.70;;
20695;SDS011;10507;52.754;13.040;2023-06-10T01:11:34;10.70;;;4.70;;
20695;SDS011;10507;52.754;13.040;2023-06-10T01:14:08;16.48;;;4.97;;
20695;SDS011;10507;52.754;13.040;2023-06-10T01:16:37;10.38;;;4.30;;
20695;SDS011;10507;52.754;13.040;2023-06-10T01:19:07;8.32;;;4.05;;
20695;SDS011;10507;52.754;13.040;2023-06-10T01:21:38;9.48;;;4.65;;
20695;SDS011;10507;52.754;13.040;2023-06-10T01:24:08;12.13;;;4.30;;
20695;SDS011;10507;52.754;13.040;2023-06-10T01:26:37;10.85;;;4.95;;
20695;SDS011;10507;52.754;13.040;2023-06-10T01:29:07;13.32;;;4.10;;
20695;SDS011;10507;52.754;13.040;2023-06-10T01:31:41;10.45;;;4.18;;
20695;SDS011;10507;52.754;13.040;2023-06-10T01:34:13;10.73;;;4.65;;
20695;SDS011;10507;52.754;13.040;2023-06-10T01:36:46;15.23;;;4.95;;
20695;SDS011;10507;52.754;13.040;2023-06-10T01:39:16;9.38;;;4.22;;
20695;SDS011;10507;52.754;13.040;2023-06-10T01:41:46;14.52;;;4.35;;
20695;SDS011;10507;52.754;13.040;2023-06-10T01:44:17;9.77;;;3.67;;
20695;SDS011;10507;52.754;13.040;2023-06-10T01:46:45;10.65;;;4.10;;
20695;SDS011;10507;52.754;13.040;2023-06-10T01:49:13;9.95;;;3.88;;
20695;SDS011;10507;52.754;13.040;2023-06-10T01:51:41;11.98;;;4.22;;
20695;SDS011;10507;52.754;13.040;2023-06-10T01:54:10;14.05;;;4.47;;
20695;SDS011;10507;52.754;13.040;2023-06-10T01:56:38;13.10;;;4.22;;
20695;SDS011;10507;52.754;13.040;2023-06-10T01:59:06;7.95;;;4.13;;
20695;SDS011;10507;52.754;13.040;2023-06-10T02:01:33;13.13;;;4.18;;
20695;SDS011;10507;52.754;13.040;2023-06-10T02:04:01;9.13;;;3.83;;
20695;SDS011;10507;52.754;13.040;2023-06-10T02:06:29;12.63;;;5.00;;
20695;SDS011;10507;52.754;13.040;2023-06-10T02:08:57;10.57;;;4.10;;
20695;SDS011;10507;52.754;13.040;2023-06-10T02:11:27;13.25;;;3.90;;
20695;SDS011;10507;52.754;13.040;2023-06-10T02:13:54;10.88;;;3.88;;
20695;SDS011;10507;52.754;13.040;2023-06-10T02:16:23;10.73;;;4.25;;
20695;SDS011;10507;52.754;13.040;2023-06-10T02:18:51;9.00;;;3.90;;
20695;SDS011;10507;52.754;13.040;2023-06-10T02:21:19;13.00;;;4.22;;
20695;SDS011;10507;52.754;13.040;2023-06-10T02:23:47;10.60;;;4.22;;
20695;SDS011;10507;52.754;13.040;2023-06-10T02:26:15;14.07;;;4.85;;
20695;SDS011;10507;52.754;13.040;2023-06-10T02:28:45;10.80;;;4.03;;
20695;SDS011;10507;52.754;13.040;2023-06-10T02:31:13;10.57;;;4.10;;
20695;SDS011;10507;52.754;13.040;2023-06-10T02:33:44;16.70;;;4.80;;
20695;SDS011;10507;52.754;13.040;2023-06-10T02:36:12;11.10;;;4.35;;
20695;SDS011;10507;52.754;13.040;2023-06-10T02:38:41;12.15;;;4.63;;
20695;SDS011;10507;52.754;13.040;2023-06-10T02:41:09;15.25;;;4.15;;
20695;SDS011;10507;52.754;13.040;2023-06-10T02:43:37;13.35;;;5.53;;
20695;SDS011;10507;52.754;13.040;2023-06-10T02:46:07;11.13;;;4.35;;
20695;SDS011;10507;52.754;13.040;2023-06-10T02:48:40;11.00;;;4.38;;
20695;SDS011;10507;52.754;13.040;2023-06-10T02:51:09;12.02;;;3.78;;
20695;SDS011;10507;52.754;13.040;2023-06-10T02:53:36;7.80;;;3.58;;
20695;SDS011;10507;52.754;13.040;2023-06-10T02:56:05;13.02;;;3.80;;
20695;SDS011;10507;52.754;13.040;2023-06-10T02:58:32;14.35;;;4.28;;
20695;SDS011;10507;52.754;13.040;2023-06-10T03:01:00;10.02;;;4.10;;
20695;SDS011;10507;52.754;13.040;2023-06-10T03:03:30;8.88;;;3.88;;
20695;SDS011;10507;52.754;13.040;2023-06-10T03:05:59;8.90;;;3.88;;
20695;SDS011;10507;52.754;13.040;2023-06-10T03:08:28;9.30;;;4.30;;
20695;SDS011;10507;52.754;13.040;2023-06-10T03:10:56;12.98;;;4.07;;
20695;SDS011;10507;52.754;13.040;2023-06-10T03:13:23;10.35;;;4.20;;
20695;SDS011;10507;52.754;13.040;2023-06-10T03:15:51;11.68;;;4.70;;
20695;SDS011;10507;52.754;13.040;2023-06-10T03:18:19;12.73;;;3.65;;
20695;SDS011;10507;52.754;13.040;2023-06-10T03:20:50;12.23;;;4.10;;
20695;SDS011;10507;52.754;13.040;2023-06-10T03:23:18;12.13;;;4.05;;
20695;SDS011;10507;52.754;13.040;2023-06-10T03:25:46;13.32;;;4.30;;
20695;SDS011;10507;52.754;13.040;2023-06-10T03:28:14;9.00;;;4.20;;
20695;SDS011;10507;52.754;13.040;2023-06-10T03:30:42;10.88;;;4.05;;
20695;SDS011;10507;52.754;13.040;2023-06-10T03:33:10;13.60;;;4.00;;
20695;SDS011;10507;52.754;13.040;2023-06-10T03:35:38;11.55;;;4.25;;
20695;SDS011;10507;52.754;13.040;2023-06-10T03:38:07;11.80;;;4.10;;
20695;SDS011;10507;52.754;13.040;2023-06-10T03:40:35;9.75;;;3.42;;
20695;SDS011;10507;52.754;13.040;2023-06-10T03:43:03;12.85;;;4.20;;
20695;SDS011;10507;52.754;13.040;2023-06-10T03:45:31;10.30;;;4.10;;
20695;SDS011;10507;52.754;13.040;2023-06-10T03:48:00;13.43;;;4.35;;
20695;SDS011;10507;52.754;13.040;2023-06-10T03:50:30;8.35;;;3.50;;
20695;SDS011;10507;52.754;13.040;2023-06-10T03:52:58;11.85;;;3.95;;
20695;SDS011;10507;52.754;13.040;2023-06-10T03:55:27;10.45;;;4.20;;
20695;SDS011;10507;52.754;13.040;2023-06-10T03:57:55;11.27;;;4.53;;
20695;SDS011;10507;52.754;13.040;2023-06-10T04:00:23;12.80;;;4.32;;
20695;SDS011;10507;52.754;13.040;2023-06-10T04:02:51;11.93;;;4.45;;
20695;SDS011;10507;52.754;13.040;2023-06-10T04:05:19;10.23;;;3.97;;
20695;SDS011;10507;52.754;13.040;2023-06-10T04:07:49;10.27;;;3.63;;
20695;SDS011;10507;52.754;13.040;2023-06-10T04:10:16;11.32;;;3.85;;
20695;SDS011;10507;52.754;13.040;2023-06-10T04:12:46;7.38;;;3.58;;
20695;SDS011;10507;52.754;13.040;2023-06-10T04:15:14;8.73;;;3.70;;
20695;SDS011;10507;52.754;13.040;2023-06-10T04:17:41;9.05;;;3.97;;
20695;SDS011;10507;52.754;13.040;2023-06-10T04:20:10;9.77;;;4.22;;
20695;SDS011;10507;52.754;13.040;2023-06-10T04:22:38;11.25;;;3.72;;
20695;SDS011;10507;52.754;13.040;2023-06-10T04:25:06;11.88;;;3.65;;
20695;SDS011;10507;52.754;13.040;2023-06-10T04:27:34;11.35;;;4.18;;
20695;SDS011;10507;52.754;13.040;2023-06-10T04:30:04;10.77;;;4.32;;
20695;SDS011;10507;52.754;13.040;2023-06-10T04:32:33;11.38;;;4.20;;
20695;SDS011;10507;52.754;13.040;2023-06-10T04:35:01;10.57;;;4.35;;
20695;SDS011;10507;52.754;13.040;2023-06-10T04:37:29;6.38;;;3.65;;
20695;SDS011;10507;52.754;13.040;2023-06-10T04:39:57;11.23;;;4.25;;
20695;SDS011;10507;52.754;13.040;2023-06-10T04:42:25;10.98;;;3.63;;
20695;SDS011;10507;52.754;13.040;2023-06-10T04:44:53;9.13;;;3.63;;
20695;SDS011;10507;52.754;13.040;2023-06-10T04:47:22;8.55;;;3.28;;
20695;SDS011;10507;52.754;13.040;2023-06-10T04:49:50;10.43;;;4.35;;
20695;SDS011;10507;52.754;13.040;2023-06-10T04:52:18;8.52;;;3.63;;
20695;SDS011;10507;52.754;13.040;2023-06-10T04:54:47;8.32;;;3.45;;
20695;SDS011;10507;52.754;13.040;2023-06-10T04:57:15;8.90;;;3.95;;
20695;SDS011;10507;52.754;13.040;2023-06-10T04:59:43;12.50;;;3.50;;
20695;SDS011;10507;52.754;13.040;2023-06-10T05:02:10;13.32;;;4.05;;
20695;SDS011;10507;52.754;13.040;2023-06-10T05:04:40;7.35;;;3.17;;
20695;SDS011;10507;52.754;13.040;2023-06-10T05:07:08;7.82;;;3.22;;
20695;SDS011;10507;52.754;13.040;2023-06-10T05:09:36;7.07;;;3.53;;
20695;SDS011;10507;52.754;13.040;2023-06-10T05:12:04;10.43;;;3.72;;
20695;SDS011;10507;52.754;13.040;2023-06-10T05:14:33;10.05;;;3.42;;
20695;SDS011;10507;52.754;13.040;2023-06-10T05:17:01;11.73;;;3.70;;
20695;SDS011;10507;52.754;13.040;2023-06-10T05:19:28;9.68;;;3.95;;
20695;SDS011;10507;52.754;13.040;2023-06-10T05:21:58;10.35;;;3.38;;
20695;SDS011;10507;52.754;13.040;2023-06-10T05:24:26;9.57;;;3.78;;
20695;SDS011;10507;52.754;13.040;2023-06-10T05:26:54;9.80;;;3.78;;
20695;SDS011;10507;52.754;13.040;2023-06-10T05:29:21;8.65;;;3.63;;
20695;SDS011;10507;52.754;13.040;2023-06-10T05:31:49;7.63;;;3.65;;
20695;SDS011;10507;52.754;13.040;2023-06-10T05:34:17;8.98;;;3.72;;
20695;SDS011;10507;52.754;13.040;2023-06-10T05:36:45;8.27;;;2.97;;
20695;SDS011;10507;52.754;13.040;2023-06-10T05:39:15;8.52;;;3.30;;
20695;SDS011;10507;52.754;13.040;2023-06-10T05:41:43;8.13;;;2.90;;
20695;SDS011;10507;52.754;13.040;2023-06-10T05:44:10;6.93;;;3.05;;
20695;SDS011;10507;52.754;13.040;2023-06-10T05:46:39;6.65;;;2.97;;
20695;SDS011;10507;52.754;13.040;2023-06-10T05:49:07;6.22;;;2.67;;
20695;SDS011;10507;52.754;13.040;2023-06-10T05:51:35;6.50;;;3.28;;
20695;SDS011;10507;52.754;13.040;2023-06-10T05:54:04;5.00;;;2.70;;
20695;SDS011;10507;52.754;13.040;2023-06-10T05:56:33;5.35;;;2.20;;
20695;SDS011;10507;52.754;13.040;2023-06-10T05:59:01;8.88;;;2.90;;
20695;SDS011;10507;52.754;13.040;2023-06-10T06:01:29;9.05;;;2.70;;
20695;SDS011;10507;52.754;13.040;2023-06-10T06:03:57;4.90;;;2.90;;
20695;SDS011;10507;52.754;13.040;2023-06-10T06:06:25;7.22;;;2.97;;
20695;SDS011;10507;52.754;13.040;2023-06-10T06:08:53;8.57;;;3.30;;
20695;SDS011;10507;52.754;13.040;2023-06-10T06:11:21;5.20;;;2.90;;
20695;SDS011;10507;52.754;13.040;2023-06-10T06:13:50;6.10;;;3.17;;
20695;SDS011;10507;52.754;13.040;2023-06-10T06:16:19;7.72;;;3.28;;
20695;SDS011;10507;52.754;13.040;2023-06-10T06:18:47;5.05;;;3.03;;
20695;SDS011;10507;52.754;13.040;2023-06-10T06:21:14;8.55;;;3.17;;
20695;SDS011;10507;52.754;13.040;2023-06-10T06:23:42;6.70;;;2.95;;
20695;SDS011;10507;52.754;13.040;2023-06-10T06:26:10;5.35;;;2.63;;
20695;SDS011;10507;52.754;13.040;2023-06-10T06:28:38;6.57;;;2.80;;
20695;SDS011;10507;52.754;13.040;2023-06-10T06:31:07;5.72;;;3.00;;
20695;SDS011;10507;52.754;13.040;2023-06-10T06:33:38;7.97;;;3.00;;
20695;SDS011;10507;52.754;13.040;2023-06-10T06:36:08;5.47;;;2.88;;
20695;SDS011;10507;52.754;13.040;2023-06-10T06:38:36;6.68;;;2.67;;
20695;SDS011;10507;52.754;13.040;2023-06-10T06:41:04;7.22;;;3.05;;
20695;SDS011;10507;52.754;13.040;2023-06-10T06:43:32;6.65;;;3.17;;
20695;SDS011;10507;52.754;13.040;2023-06-10T06:46:01;7.35;;;3.25;;
20695;SDS011;10507;52.754;13.040;2023-06-10T06:48:30;5.22;;;3.08;;
20695;SDS011;10507;52.754;13.040;2023-06-10T06:50:58;7.25;;;3.08;;
20695;SDS011;10507;52.754;13.040;2023-06-10T06:53:26;6.45;;;3.80;;
20695;SDS011;10507;52.754;13.040;2023-06-10T06:55:57;12.80;;;5.93;;
20695;SDS011;10507;52.754;13.040;2023-06-10T06:58:25;7.55;;;3.00;;
20695;SDS011;10507;52.754;13.040;2023-06-10T07:00:53;7.57;;;3.05;;
20695;SDS011;10507;52.754;13.040;2023-06-10T07:03:21;6.60;;;3.15;;
20695;SDS011;10507;52.754;13.040;2023-06-10T07:05:51;5.65;;;3.58;;
20695;SDS011;10507;52.754;13.040;2023-06-10T07:08:19;6.57;;;3.00;;
20695;SDS011;10507;52.754;13.040;2023-06-10T07:10:47;7.13;;;4.57;;
20695;SDS011;10507;52.754;13.040;2023-06-10T07:13:16;7.53;;;3.38;;
20695;SDS011;10507;52.754;13.040;2023-06-10T07:15:43;7.82;;;3.40;;
20695;SDS011;10507;52.754;13.040;2023-06-10T07:18:11;6.20;;;3.42;;
20695;SDS011;10507;52.754;13.040;2023-06-10T07:20:39;8.43;;;3.45;;
20695;SDS011;10507;52.754;13.040;2023-06-10T07:23:09;7.03;;;3.60;;
20695;SDS011;10507;52.754;13.040;2023-06-10T07:25:37;6.00;;;3.50;;
20695;SDS011;10507;52.754;13.040;2023-06-10T07:28:05;6.47;;;3.60;;
20695;SDS011;10507;52.754;13.040;2023-06-10T07:30:33;5.68;;;3.53;;
20695;SDS011;10507;52.754;13.040;2023-06-10T07:33:01;4.95;;;3.13;;
20695;SDS011;10507;52.754;13.040;2023-06-10T07:35:29;6.00;;;3.65;;
20695;SDS011;10507;52.754;13.040;2023-06-10T07:37:57;8.80;;;3.83;;
20695;SDS011;10507;52.754;13.040;2023-06-10T07:40:26;7.35;;;3.42;;
20695;SDS011;10507;52.754;13.040;2023-06-10T07:42:54;6.75;;;3.47;;
20695;SDS011;10507;52.754;13.040;2023-06-10T07:45:22;10.32;;;3.58;;
20695;SDS011;10507;52.754;13.040;2023-06-10T07:47:52;6.55;;;3.45;;
20695;SDS011;10507;52.754;13.040;2023-06-10T07:50:21;4.90;;;3.42;;
20695;SDS011;10507;52.754;13.040;2023-06-10T07:52:49;8.82;;;3.50;;
20695;SDS011;10507;52.754;13.040;2023-06-10T07:55:17;7.93;;;3.60;;
20695;SDS011;10507;52.754;13.040;2023-06-10T07:57:46;7.88;;;3.30;;
20695;SDS011;10507;52.754;13.040;2023-06-10T08:00:14;5.65;;;3.38;;
20695;SDS011;10507;52.754;13.040;2023-06-10T08:02:43;6.50;;;2.90;;
20695;SDS011;10507;52.754;13.040;2023-06-10T08:05:11;9.68;;;3.22;;
20695;SDS011;10507;52.754;13.040;2023-06-10T08:07:39;7.72;;;3.10;;
20695;SDS011;10507;52.754;13.040;2023-06-10T08:10:08;9.85;;;3.80;;
20695;SDS011;10507;52.754;13.040;2023-06-10T08:12:36;5.40;;;3.10;;
20695;SDS011;10507;52.754;13.040;2023-06-10T08:15:06;6.60;;;3.63;;
20695;SDS011;10507;52.754;13.040;2023-06-10T08:17:36;7.18;;;3.85;;
20695;SDS011;10507;52.754;13.040;2023-06-10T08:20:05;8.98;;;3.88;;
20695;SDS011;10507;52.754;13.040;2023-06-10T08:22:34;6.10;;;3.38;;
20695;SDS011;10507;52.754;13.040;2023-06-10T08:25:01;11.95;;;4.38;;
20695;SDS011;10507;52.754;13.040;2023-06-10T08:27:29;6.07;;;3.40;;
20695;SDS011;10507;52.754;13.040;2023-06-10T08:29:57;7.75;;;4.00;;
20695;SDS011;10507;52.754;13.040;2023-06-10T08:32:29;4.88;;;3.60;;
20695;SDS011;10507;52.754;13.040;2023-06-10T08:34:57;6.20;;;3.70;;
20695;SDS011;10507;52.754;13.040;2023-06-10T08:37:28;7.43;;;3.80;;
20695;SDS011;10507;52.754;13.040;2023-06-10T08:39:56;6.57;;;4.22;;
20695;SDS011;10507;52.754;13.040;2023-06-10T08:42:24;7.93;;;4.18;;
20695;SDS011;10507;52.754;13.040;2023-06-10T08:44:55;8.07;;;3.83;;
20695;SDS011;10507;52.754;13.040;2023-06-10T08:47:29;6.95;;;3.85;;
20695;SDS011;10507;52.754;13.040;2023-06-10T08:49:58;7.32;;;4.18;;
20695;SDS011;10507;52.754;13.040;2023-06-10T08:52:34;9.93;;;4.60;;
20695;SDS011;10507;52.754;13.040;2023-06-10T08:55:04;7.28;;;4.50;;
20695;SDS011;10507;52.754;13.040;2023-06-10T08:57:38;7.90;;;4.32;;
20695;SDS011;10507;52.754;13.040;2023-06-10T09:00:09;6.68;;;4.50;;
20695;SDS011;10507;52.754;13.040;2023-06-10T09:02:39;7.82;;;4.32;;
20695;SDS011;10507;52.754;13.040;2023-06-10T09:05:08;9.35;;;5.03;;
20695;SDS011;10507;52.754;13.040;2023-06-10T09:07:36;10.88;;;5.47;;
20695;SDS011;10507;52.754;13.040;2023-06-10T09:10:06;11.93;;;4.35;;
20695;SDS011;10507;52.754;13.040;2023-06-10T09:12:35;7.10;;;4.45;;
20695;SDS011;10507;52.754;13.040;2023-06-10T09:15:04;7.78;;;4.78;;
20695;SDS011;10507;52.754;13.040;2023-06-10T09:17:33;5.80;;;3.80;;
20695;SDS011;10507;52.754;13.040;2023-06-10T09:20:06;7.97;;;4.13;;
20695;SDS011;10507;52.754;13.040;2023-06-10T09:22:36;8.15;;;4.65;;
20695;SDS011;10507;52.754;13.040;2023-06-10T09:25:05;9.13;;;4.35;;
20695;SDS011;10507;52.754;13.040;2023-06-10T09:27:43;11.98;;;4.40;;
20695;SDS011;10507;52.754;13.040;2023-06-10T09:30:24;11.68;;;4.60;;
20695;SDS011;10507;52.754;13.040;2023-06-10T09:32:53;11.07;;;4.85;;
20695;SDS011;10507;52.754;13.040;2023-06-10T09:35:24;8.85;;;4.70;;
20695;SDS011;10507;52.754;13.040;2023-06-10T09:37:55;8.93;;;4.88;;
20695;SDS011;10507;52.754;13.040;2023-06-10T09:40:24;7.70;;;4.38;;
20695;SDS011;10507;52.754;13.040;2023-06-10T09:42:52;7.00;;;4.45;;
20695;SDS011;10507;52.754;13.040;2023-06-10T09:45:22;7.30;;;4.72;;
20695;SDS011;10507;52.754;13.040;2023-06-10T09:47:51;6.88;;;4.78;;
20695;SDS011;10507;52.754;13.040;2023-06-10T09:50:20;7.28;;;4.82;;
20695;SDS011;10507;52.754;13.040;2023-06-10T09:52:49;8.77;;;5.05;;
20695;SDS011;10507;52.754;13.040;2023-06-10T09:55:18;7.93;;;4.95;;
20695;SDS011;10507;52.754;13.040;2023-06-10T09:57:47;8.98;;;5.35;;
20695;SDS011;10507;52.754;13.040;2023-06-10T10:00:17;8.98;;;5.80;;
20695;SDS011;10507;52.754;13.040;2023-06-10T10:02:46;8.80;;;5.35;;
20695;SDS011;10507;52.754;13.040;2023-06-10T10:05:16;9.15;;;4.72;;
20695;SDS011;10507;52.754;13.040;2023-06-10T10:07:45;7.20;;;5.05;;
20695;SDS011;10507;52.754;13.040;2023-06-10T10:10:16;8.20;;;6.35;;
20695;SDS011;10507;52.754;13.040;2023-06-10T10:12:46;6.78;;;4.93;;
20695;SDS011;10507;52.754;13.040;2023-06-10T10:15:15;9.93;;;5.50;;
20695;SDS011;10507;52.754;13.040;2023-06-10T10:17:46;8.00;;;4.97;;
20695;SDS011;10507;52.754;13.040;2023-06-10T10:20:20;7.72;;;4.70;;
20695;SDS011;10507;52.754;13.040;2023-06-10T10:22:52;8.05;;;4.57;;
20695;SDS011;10507;52.754;13.040;2023-06-10T10:25:27;15.40;;;5.45;;
20695;SDS011;10507;52.754;13.040;2023-06-10T10:27:58;8.98;;;4.18;;
20695;SDS011;10507;52.754;13.040;2023-06-10T10:30:34;8.43;;;4.82;;
20695;SDS011;10507;52.754;13.040;2023-06-10T10:33:09;7.88;;;4.90;;
20695;SDS011;10507;52.754;13.040;2023-06-10T10:35:40;7.82;;;5.00;;
20695;SDS011;10507;52.754;13.040;2023-06-10T10:38:09;8.25;;;4.55;;
20695;SDS011;10507;52.754;13.040;2023-06-10T10:40:38;7.85;;;4.75;;
20695;SDS011;10507;52.754;13.040;2023-06-10T10:43:07;9.10;;;5.43;;
20695;SDS011;10507;52.754;13.040;2023-06-10T10:45:36;8.07;;;4.90;;
20695;SDS011;10507;52.754;13.040;2023-06-10T10:48:05;7.32;;;4.90;;
20695;SDS011;10507;52.754;13.040;2023-06-10T10:50:38;8.23;;;4.75;;
20695;SDS011;10507;52.754;13.040;2023-06-10T10:53:06;9.70;;;4.75;;
20695;SDS011;10507;52.754;13.040;2023-06-10T10:55:35;9.13;;;4.93;;
20695;SDS011;10507;52.754;13.040;2023-06-10T10:58:05;7.72;;;5.22;;
20695;SDS011;10507;52.754;13.040;2023-06-10T11:00:35;7.32;;;4.50;;
20695;SDS011;10507;52.754;13.040;2023-06-10T11:03:05;8.27;;;5.00;;
20695;SDS011;10507;52.754;13.040;2023-06-10T11:05:38;10.35;;;4.85;;
20695;SDS011;10507;52.754;13.040;2023-06-10T11:08:08;7.82;;;5.07;;
20695;SDS011;10507;52.754;13.040;2023-06-10T11:10:36;7.95;;;4.57;;
20695;SDS011;10507;52.754;13.040;2023-06-10T11:13:07;8.55;;;5.45;;
20695;SDS011;10507;52.754;13.040;2023-06-10T11:15:40;9.35;;;4.80;;
20695;SDS011;10507;52.754;13.040;2023-06-10T11:18:14;7.78;;;4.63;;
20695;SDS011;10507;52.754;13.040;2023-06-10T11:20:54;9.23;;;4.70;;
20695;SDS011;10507;52.754;13.040;2023-06-10T11:26:13;7.88;;;4.53;;
20695;SDS011;10507;52.754;13.040;2023-06-10T11:31:31;6.28;;;4.88;;
20695;SDS011;10507;52.754;13.040;2023-06-10T11:34:01;6.47;;;4.57;;
20695;SDS011;10507;52.754;13.040;2023-06-10T11:36:31;8.65;;;4.43;;
20695;SDS011;10507;52.754;13.040;2023-06-10T11:39:01;6.25;;;4.55;;
20695;SDS011;10507;52.754;13.040;2023-06-10T11:41:31;7.90;;;4.63;;
20695;SDS011;10507;52.754;13.040;2023-06-10T11:44:01;6.63;;;4.35;;
20695;SDS011;10507;52.754;13.040;2023-06-10T11:46:31;6.82;;;4.28;;
20695;SDS011;10507;52.754;13.040;2023-06-10T11:48:59;6.18;;;4.65;;
20695;SDS011;10507;52.754;13.040;2023-06-10T11:51:28;8.18;;;4.75;;
20695;SDS011;10507;52.754;13.040;2023-06-10T11:54:03;7.43;;;4.68;;
20695;SDS011;10507;52.754;13.040;2023-06-10T11:56:32;8.52;;;4.65;;
20695;SDS011;10507;52.754;13.040;2023-06-10T11:59:00;8.32;;;4.57;;
20695;SDS011;10507;52.754;13.040;2023-06-10T12:01:32;6.43;;;5.07;;
20695;SDS011;10507;52.754;13.040;2023-06-10T12:04:02;6.80;;;4.60;;
20695;SDS011;10507;52.754;13.040;2023-06-10T12:06:38;5.65;;;4.10;;
20695;SDS011;10507;52.754;13.040;2023-06-10T12:09:07;8.30;;;4.50;;
20695;SDS011;10507;52.754;13.040;2023-06-10T12:11:57;7.88;;;4.38;;
20695;SDS011;10507;52.754;13.040;2023-06-10T12:17:23;8.52;;;4.53;;
20695;SDS011;10507;52.754;13.040;2023-06-10T12:20:04;10.70;;;4.78;;
20695;SDS011;10507;52.754;13.040;2023-06-10T12:22:36;6.40;;;3.83;;
20695;SDS011;10507;52.754;13.040;2023-06-10T12:25:05;6.20;;;3.95;;
20695;SDS011;10507;52.754;13.040;2023-06-10T12:27:35;8.05;;;4.22;;
20695;SDS011;10507;52.754;13.040;2023-06-10T12:30:05;6.03;;;3.90;;
20695;SDS011;10507;52.754;13.040;2023-06-10T12:32:34;7.00;;;4.07;;
20695;SDS011;10507;52.754;13.040;2023-06-10T12:35:03;5.50;;;4.05;;
20695;SDS011;10507;52.754;13.040;2023-06-10T12:37:33;5.70;;;4.35;;
20695;SDS011;10507;52.754;13.040;2023-06-10T12:40:07;7.97;;;4.07;;
20695;SDS011;10507;52.754;13.040;2023-06-10T12:42:36;6.90;;;4.15;;
20695;SDS011;10507;52.754;13.040;2023-06-10T12:45:07;5.18;;;3.90;;
20695;SDS011;10507;52.754;13.040;2023-06-10T12:47:37;7.40;;;4.22;;
20695;SDS011;10507;52.754;13.040;2023-06-10T12:50:06;7.38;;;4.30;;
20695;SDS011;10507;52.754;13.040;2023-06-10T12:52:35;6.55;;;3.97;;
20695;SDS011;10507;52.754;13.040;2023-06-10T12:55:03;6.95;;;4.18;;
20695;SDS011;10507;52.754;13.040;2023-06-10T12:57:32;5.15;;;3.47;;
20695;SDS011;10507;52.754;13.040;2023-06-10T13:00:00;5.95;;;3.83;;
20695;SDS011;10507;52.754;13.040;2023-06-10T13:02:32;5.82;;;3.80;;
20695;SDS011;10507;52.754;13.040;2023-06-10T13:05:01;6.93;;;3.78;;
20695;SDS011;10507;52.754;13.040;2023-06-10T13:07:29;5.72;;;4.07;;
20695;SDS011;10507;52.754;13.040;2023-06-10T13:09:57;7.82;;;3.58;;
20695;SDS011;10507;52.754;13.040;2023-06-10T13:12:25;5.68;;;3.83;;
20695;SDS011;10507;52.754;13.040;2023-06-10T13:15:08;5.20;;;3.42;;
20695;SDS011;10507;52.754;13.040;2023-06-10T13:17:38;5.40;;;3.70;;
20695;SDS011;10507;52.754;13.040;2023-06-10T13:20:07;6.93;;;3.92;;
20695;SDS011;10507;52.754;13.040;2023-06-10T13:22:35;5.60;;;4.25;;
20695;SDS011;10507;52.754;13.040;2023-06-10T13:25:03;7.68;;;4.10;;
20695;SDS011;10507;52.754;13.040;2023-06-10T13:27:33;5.20;;;4.15;;
20695;SDS011;10507;52.754;13.040;2023-06-10T13:30:04;5.30;;;4.10;;
20695;SDS011;10507;52.754;13.040;2023-06-10T13:32:33;6.55;;;4.18;;
20695;SDS011;10507;52.754;13.040;2023-06-10T13:35:02;5.25;;;3.95;;
20695;SDS011;10507;52.754;13.040;2023-06-10T13:37:31;7.85;;;4.35;;
20695;SDS011;10507;52.754;13.040;2023-06-10T13:40:00;6.85;;;4.30;;
20695;SDS011;10507;52.754;13.040;2023-06-10T13:42:31;5.82;;;4.63;;
20695;SDS011;10507;52.754;13.040;2023-06-10T13:44:58;6.00;;;4.65;;
20695;SDS011;10507;52.754;13.040;2023-06-10T13:47:26;5.50;;;4.68;;
20695;SDS011;10507;52.754;13.040;2023-06-10T13:49:54;6.65;;;4.40;;
20695;SDS011;10507;52.754;13.040;2023-06-10T13:52:24;6.50;;;4.28;;
20695;SDS011;10507;52.754;13.040;2023-06-10T13:54:51;6.45;;;4.70;;
20695;SDS011;10507;52.754;13.040;2023-06-10T13:57:19;6.13;;;4.72;;
20695;SDS011;10507;52.754;13.040;2023-06-10T13:59:47;7.45;;;5.00;;
20695;SDS011;10507;52.754;13.040;2023-06-10T14:02:15;6.60;;;5.05;;
20695;SDS011;10507;52.754;13.040;2023-06-10T14:04:43;6.60;;;5.15;;
20695;SDS011;10507;52.754;13.040;2023-06-10T14:07:11;7.65;;;5.20;;
20695;SDS011;10507;52.754;13.040;2023-06-10T14:09:40;6.60;;;4.28;;
20695;SDS011;10507;52.754;13.040;2023-06-10T14:12:08;7.00;;;4.72;;
20695;SDS011;10507;52.754;13.040;2023-06-10T14:14:37;7.45;;;4.82;;
20695;SDS011;10507;52.754;13.040;2023-06-10T14:17:05;6.63;;;5.05;;
20695;SDS011;10507;52.754;13.040;2023-06-10T14:19:33;9.00;;;4.88;;
20695;SDS011;10507;52.754;13.040;2023-06-10T14:22:01;6.68;;;4.40;;
20695;SDS011;10507;52.754;13.040;2023-06-10T14:24:33;5.57;;;4.18;;
20695;SDS011;10507;52.754;13.040;2023-06-10T14:27:02;6.80;;;4.43;;
20695;SDS011;10507;52.754;13.040;2023-06-10T14:29:31;7.10;;;4.32;;
20695;SDS011;10507;52.754;13.040;2023-06-10T14:32:00;5.18;;;3.90;;
20695;SDS011;10507;52.754;13.040;2023-06-10T14:34:32;6.30;;;4.32;;
20695;SDS011;10507;52.754;13.040;2023-06-10T14:37:01;5.45;;;4.22;;
20695;SDS011;10507;52.754;13.040;2023-06-10T14:39:30;5.22;;;4.10;;
20695;SDS011;10507;52.754;13.040;2023-06-10T14:41:58;6.95;;;4.18;;
20695;SDS011;10507;52.754;13.040;2023-06-10T14:44:28;8.98;;;4.88;;
20695;SDS011;10507;52.754;13.040;2023-06-10T14:46:56;5.82;;;4.35;;
20695;SDS011;10507;52.754;13.040;2023-06-10T14:49:24;7.63;;;5.43;;
20695;SDS011;10507;52.754;13.040;2023-06-10T14:51:52;7.43;;;5.10;;